CheckWX is a tool to help pilots better visualize weather data.  It is not intended as a substitute for an official pre-flight weather briefing.

21:03:13 UTC

DNJO METAR
Yakubu Gowon Airport
Jos, Nigeria
Current

14 hours ago

DNJO 230700Z 26014KT CAVOK 22/21 Q1017
Observed
Apr-23 @ 07:00 UTC
Wind
  • 260° at 14 KTS
Visibility
10,000+ meters
Flight Rules
VFR
Cloud Levels
  • Clear skies
Temperature
22°C / 72°F
Dewpoint
21°C / 70°F
Humidity
94%
Altimeter
30.03" Hg
Pressure
1016.92 hPa